sensor_id;sensor_type;location;lat;lon;timestamp;P1;durP1;ratioP1;P2;durP2;ratioP2
25169;SDS011;13129;48.012;10.352;2023-05-23T03:32:09;24.27;;;19.10;;
25169;SDS011;13129;48.012;10.352;2023-05-23T03:34:35;25.88;;;19.25;;
25169;SDS011;13129;48.012;10.352;2023-05-23T03:37:00;26.02;;;19.15;;
25169;SDS011;13129;48.012;10.352;2023-05-23T03:39:26;22.85;;;19.05;;
25169;SDS011;13129;48.012;10.352;2023-05-23T03:41:51;24.20;;;20.33;;
25169;SDS011;13129;48.012;10.352;2023-05-23T03:44:17;22.23;;;19.08;;
25169;SDS011;13129;48.012;10.352;2023-05-23T03:46:43;22.83;;;18.40;;
25169;SDS011;13129;48.012;10.352;2023-05-23T03:49:08;20.88;;;17.00;;
25169;SDS011;13129;48.012;10.352;2023-05-23T03:51:34;21.50;;;18.65;;
25169;SDS011;13129;48.012;10.352;2023-05-23T03:53:59;20.98;;;17.90;;
25169;SDS011;13129;48.012;10.352;2023-05-23T03:56:25;27.98;;;20.70;;
25169;SDS011;13129;48.012;10.352;2023-05-23T03:58:51;25.08;;;19.20;;
25169;SDS011;13129;48.012;10.352;2023-05-23T04:01:16;22.90;;;18.48;;
25169;SDS011;13129;48.012;10.352;2023-05-23T04:03:42;23.77;;;19.80;;
25169;SDS011;13129;48.012;10.352;2023-05-23T04:06:07;23.73;;;19.42;;
25169;SDS011;13129;48.012;10.352;2023-05-23T04:08:33;25.10;;;18.95;;
25169;SDS011;13129;48.012;10.352;2023-05-23T04:10:59;24.15;;;20.48;;
25169;SDS011;13129;48.012;10.352;2023-05-23T04:13:26;26.10;;;21.02;;
25169;SDS011;13129;48.012;10.352;2023-05-23T04:15:52;30.63;;;23.27;;
25169;SDS011;13129;48.012;10.352;2023-05-23T04:18:20;27.15;;;23.02;;
25169;SDS011;13129;48.012;10.352;2023-05-23T04:20:46;29.00;;;22.27;;
25169;SDS011;13129;48.012;10.352;2023-05-23T04:23:12;24.02;;;19.92;;
25169;SDS011;13129;48.012;10.352;2023-05-23T04:25:37;20.98;;;17.83;;
25169;SDS011;13129;48.012;10.352;2023-05-23T04:28:03;20.63;;;17.70;;
25169;SDS011;13129;48.012;10.352;2023-05-23T04:30:30;20.60;;;16.88;;
25169;SDS011;13129;48.012;10.352;2023-05-23T04:32:57;19.77;;;17.75;;
25169;SDS011;13129;48.012;10.352;2023-05-23T04:35:24;22.35;;;18.60;;
25169;SDS011;13129;48.012;10.352;2023-05-23T04:37:52;21.90;;;18.60;;
25169;SDS011;13129;48.012;10.352;2023-05-23T04:40:22;23.00;;;17.42;;
25169;SDS011;13129;48.012;10.352;2023-05-23T04:42:48;20.13;;;17.85;;
25169;SDS011;13129;48.012;10.352;2023-05-23T04:45:15;23.05;;;18.98;;
25169;SDS011;13129;48.012;10.352;2023-05-23T04:47:41;24.20;;;20.10;;
25169;SDS011;13129;48.012;10.352;2023-05-23T04:50:09;24.52;;;20.25;;
25169;SDS011;13129;48.012;10.352;2023-05-23T04:52:35;24.40;;;19.52;;
25169;SDS011;13129;48.012;10.352;2023-05-23T04:55:00;23.23;;;19.15;;
25169;SDS011;13129;48.012;10.352;2023-05-23T04:57:26;21.40;;;19.08;;
25169;SDS011;13129;48.012;10.352;2023-05-23T04:59:52;25.05;;;20.90;;
25169;SDS011;13129;48.012;10.352;2023-05-23T05:02:17;23.73;;;20.70;;
25169;SDS011;13129;48.012;10.352;2023-05-23T05:04:43;26.23;;;22.30;;
25169;SDS011;13129;48.012;10.352;2023-05-23T05:07:09;25.30;;;20.67;;
25169;SDS011;13129;48.012;10.352;2023-05-23T05:09:35;24.25;;;21.23;;
25169;SDS011;13129;48.012;10.352;2023-05-23T05:12:01;23.08;;;20.20;;
25169;SDS011;13129;48.012;10.352;2023-05-23T05:14:26;24.88;;;20.50;;
25169;SDS011;13129;48.012;10.352;2023-05-23T05:16:52;27.27;;;21.98;;
25169;SDS011;13129;48.012;10.352;2023-05-23T05:19:22;25.88;;;21.98;;
25169;SDS011;13129;48.012;10.352;2023-05-23T05:21:48;26.05;;;20.33;;
25169;SDS011;13129;48.012;10.352;2023-05-23T05:24:14;26.13;;;22.45;;
25169;SDS011;13129;48.012;10.352;2023-05-23T05:26:40;30.55;;;23.92;;
25169;SDS011;13129;48.012;10.352;2023-05-23T05:29:06;27.67;;;22.60;;
25169;SDS011;13129;48.012;10.352;2023-05-23T05:31:32;30.17;;;23.95;;
25169;SDS011;13129;48.012;10.352;2023-05-23T05:33:57;27.20;;;23.58;;
25169;SDS011;13129;48.012;10.352;2023-05-23T05:36:23;35.42;;;25.73;;
25169;SDS011;13129;48.012;10.352;2023-05-23T05:38:49;31.02;;;24.83;;
25169;SDS011;13129;48.012;10.352;2023-05-23T05:41:15;31.00;;;24.55;;
25169;SDS011;13129;48.012;10.352;2023-05-23T05:43:40;31.63;;;25.75;;
25169;SDS011;13129;48.012;10.352;2023-05-23T05:46:06;34.63;;;24.75;;
25169;SDS011;13129;48.012;10.352;2023-05-23T05:48:32;30.63;;;24.80;;
25169;SDS011;13129;48.012;10.352;2023-05-23T05:50:57;29.77;;;24.30;;
25169;SDS011;13129;48.012;10.352;2023-05-23T05:53:25;29.77;;;23.85;;
25169;SDS011;13129;48.012;10.352;2023-05-23T05:55:52;30.55;;;24.10;;
25169;SDS011;13129;48.012;10.352;2023-05-23T05:58:18;27.65;;;22.95;;
25169;SDS011;13129;48.012;10.352;2023-05-23T06:00:44;33.85;;;24.58;;
25169;SDS011;13129;48.012;10.352;2023-05-23T06:03:09;32.05;;;24.13;;
25169;SDS011;13129;48.012;10.352;2023-05-23T06:05:36;35.95;;;25.65;;
25169;SDS011;13129;48.012;10.352;2023-05-23T06:08:03;31.17;;;24.23;;
25169;SDS011;13129;48.012;10.352;2023-05-23T06:10:29;31.63;;;22.77;;
25169;SDS011;13129;48.012;10.352;2023-05-23T06:12:54;30.15;;;24.63;;
25169;SDS011;13129;48.012;10.352;2023-05-23T06:15:20;28.83;;;22.80;;
25169;SDS011;13129;48.012;10.352;2023-05-23T06:17:46;28.85;;;23.00;;
25169;SDS011;13129;48.012;10.352;2023-05-23T06:20:12;30.35;;;23.95;;
25169;SDS011;13129;48.012;10.352;2023-05-23T06:22:37;33.05;;;24.00;;
25169;SDS011;13129;48.012;10.352;2023-05-23T06:25:03;30.90;;;25.13;;
25169;SDS011;13129;48.012;10.352;2023-05-23T06:27:30;31.65;;;23.70;;
25169;SDS011;13129;48.012;10.352;2023-05-23T06:29:56;34.90;;;25.75;;
25169;SDS011;13129;48.012;10.352;2023-05-23T06:32:21;38.45;;;26.58;;
25169;SDS011;13129;48.012;10.352;2023-05-23T06:34:47;31.73;;;25.00;;
25169;SDS011;13129;48.012;10.352;2023-05-23T06:37:13;34.47;;;27.05;;
25169;SDS011;13129;48.012;10.352;2023-05-23T06:39:38;33.90;;;26.58;;
25169;SDS011;13129;48.012;10.352;2023-05-23T06:42:04;38.45;;;28.08;;
25169;SDS011;13129;48.012;10.352;2023-05-23T06:44:30;35.53;;;27.80;;
25169;SDS011;13129;48.012;10.352;2023-05-23T06:46:55;37.20;;;27.95;;
25169;SDS011;13129;48.012;10.352;2023-05-23T06:49:23;37.17;;;27.55;;
25169;SDS011;13129;48.012;10.352;2023-05-23T06:51:49;39.53;;;29.33;;
25169;SDS011;13129;48.012;10.352;2023-05-23T06:54:15;43.65;;;31.42;;
25169;SDS011;13129;48.012;10.352;2023-05-23T06:56:41;46.05;;;32.38;;
25169;SDS011;13129;48.012;10.352;2023-05-23T06:59:07;51.75;;;36.53;;
25169;SDS011;13129;48.012;10.352;2023-05-23T07:01:32;49.50;;;33.45;;
25169;SDS011;13129;48.012;10.352;2023-05-23T07:03:58;51.53;;;36.03;;
25169;SDS011;13129;48.012;10.352;2023-05-23T07:06:24;53.60;;;35.00;;
25169;SDS011;13129;48.012;10.352;2023-05-23T07:08:51;50.92;;;35.67;;
25169;SDS011;13129;48.012;10.352;2023-05-23T07:11:17;55.85;;;37.08;;
25169;SDS011;13129;48.012;10.352;2023-05-23T07:13:44;57.25;;;38.13;;
25169;SDS011;13129;48.012;10.352;2023-05-23T07:16:10;52.13;;;36.08;;
25169;SDS011;13129;48.012;10.352;2023-05-23T07:18:36;52.55;;;37.05;;
25169;SDS011;13129;48.012;10.352;2023-05-23T07:21:02;56.17;;;37.88;;
25169;SDS011;13129;48.012;10.352;2023-05-23T07:23:31;55.45;;;38.05;;
25169;SDS011;13129;48.012;10.352;2023-05-23T07:25:58;55.70;;;38.10;;
25169;SDS011;13129;48.012;10.352;2023-05-23T07:28:24;57.67;;;38.83;;
25169;SDS011;13129;48.012;10.352;2023-05-23T07:30:50;53.85;;;38.63;;
25169;SDS011;13129;48.012;10.352;2023-05-23T07:33:15;52.90;;;37.75;;
25169;SDS011;13129;48.012;10.352;2023-05-23T07:35:42;55.40;;;37.63;;
25169;SDS011;13129;48.012;10.352;2023-05-23T07:38:08;55.10;;;36.47;;
25169;SDS011;13129;48.012;10.352;2023-05-23T07:40:34;52.10;;;37.15;;
25169;SDS011;13129;48.012;10.352;2023-05-23T07:43:01;54.97;;;36.83;;
25169;SDS011;13129;48.012;10.352;2023-05-23T07:45:27;64.47;;;39.05;;
25169;SDS011;13129;48.012;10.352;2023-05-23T07:47:52;52.92;;;37.58;;
25169;SDS011;13129;48.012;10.352;2023-05-23T07:50:18;59.10;;;40.20;;
25169;SDS011;13129;48.012;10.352;2023-05-23T07:52:44;58.47;;;39.80;;
25169;SDS011;13129;48.012;10.352;2023-05-23T07:55:10;69.57;;;48.95;;
25169;SDS011;13129;48.012;10.352;2023-05-23T07:57:35;67.82;;;46.22;;
25169;SDS011;13129;48.012;10.352;2023-05-23T08:00:01;65.15;;;42.05;;
25169;SDS011;13129;48.012;10.352;2023-05-23T08:02:28;60.42;;;40.65;;
25169;SDS011;13129;48.012;10.352;2023-05-23T08:04:54;59.90;;;39.28;;
25169;SDS011;13129;48.012;10.352;2023-05-23T08:07:20;57.30;;;41.58;;
25169;SDS011;13129;48.012;10.352;2023-05-23T08:09:46;64.28;;;40.33;;
25169;SDS011;13129;48.012;10.352;2023-05-23T08:12:12;59.28;;;39.75;;
25169;SDS011;13129;48.012;10.352;2023-05-23T08:14:38;60.80;;;39.45;;
25169;SDS011;13129;48.012;10.352;2023-05-23T08:17:04;59.05;;;38.92;;
25169;SDS011;13129;48.012;10.352;2023-05-23T08:19:29;58.55;;;39.20;;
25169;SDS011;13129;48.012;10.352;2023-05-23T08:21:55;57.55;;;38.80;;
25169;SDS011;13129;48.012;10.352;2023-05-23T08:24:21;57.40;;;37.83;;
25169;SDS011;13129;48.012;10.352;2023-05-23T08:26:46;57.33;;;40.90;;
25169;SDS011;13129;48.012;10.352;2023-05-23T08:29:12;59.53;;;39.13;;
25169;SDS011;13129;48.012;10.352;2023-05-23T08:31:39;61.38;;;39.03;;
25169;SDS011;13129;48.012;10.352;2023-05-23T08:34:05;59.63;;;39.00;;
25169;SDS011;13129;48.012;10.352;2023-05-23T08:36:31;60.38;;;37.67;;
25169;SDS011;13129;48.012;10.352;2023-05-23T08:38:58;59.42;;;39.80;;
25169;SDS011;13129;48.012;10.352;2023-05-23T08:41:24;60.00;;;39.78;;
25169;SDS011;13129;48.012;10.352;2023-05-23T08:43:51;57.13;;;38.95;;
25169;SDS011;13129;48.012;10.352;2023-05-23T08:46:17;55.65;;;38.50;;
25169;SDS011;13129;48.012;10.352;2023-05-23T08:48:43;56.15;;;37.63;;
25169;SDS011;13129;48.012;10.352;2023-05-23T08:51:14;55.90;;;37.53;;
25169;SDS011;13129;48.012;10.352;2023-05-23T08:53:41;52.17;;;34.50;;
25169;SDS011;13129;48.012;10.352;2023-05-23T08:56:11;47.75;;;36.38;;
25169;SDS011;13129;48.012;10.352;2023-05-23T08:58:37;47.85;;;33.55;;
25169;SDS011;13129;48.012;10.352;2023-05-23T09:01:06;47.88;;;34.72;;
25169;SDS011;13129;48.012;10.352;2023-05-23T09:03:34;52.05;;;35.42;;
25169;SDS011;13129;48.012;10.352;2023-05-23T09:06:02;48.53;;;34.00;;
25169;SDS011;13129;48.012;10.352;2023-05-23T09:08:30;47.67;;;34.83;;
25169;SDS011;13129;48.012;10.352;2023-05-23T09:10:56;49.67;;;33.90;;
25169;SDS011;13129;48.012;10.352;2023-05-23T09:13:21;49.28;;;35.75;;
25169;SDS011;13129;48.012;10.352;2023-05-23T09:16:03;47.15;;;35.35;;
25169;SDS011;13129;48.012;10.352;2023-05-23T09:18:35;51.42;;;36.40;;
25169;SDS011;13129;48.012;10.352;2023-05-23T09:21:02;53.90;;;38.40;;
25169;SDS011;13129;48.012;10.352;2023-05-23T09:23:29;52.55;;;38.22;;
25169;SDS011;13129;48.012;10.352;2023-05-23T09:26:04;52.55;;;35.78;;
25169;SDS011;13129;48.012;10.352;2023-05-23T09:28:34;51.08;;;35.35;;
25169;SDS011;13129;48.012;10.352;2023-05-23T09:31:01;54.92;;;38.80;;
25169;SDS011;13129;48.012;10.352;2023-05-23T09:33:49;52.03;;;36.92;;
25169;SDS011;13129;48.012;10.352;2023-05-23T09:36:15;49.17;;;35.40;;
25169;SDS011;13129;48.012;10.352;2023-05-23T09:38:42;52.78;;;37.83;;
25169;SDS011;13129;48.012;10.352;2023-05-23T09:41:10;54.05;;;37.92;;
25169;SDS011;13129;48.012;10.352;2023-05-23T09:43:39;52.28;;;37.58;;
25169;SDS011;13129;48.012;10.352;2023-05-23T09:46:18;53.00;;;37.88;;
25169;SDS011;13129;48.012;10.352;2023-05-23T09:48:48;48.45;;;33.55;;
25169;SDS011;13129;48.012;10.352;2023-05-23T09:51:17;51.65;;;36.97;;
25169;SDS011;13129;48.012;10.352;2023-05-23T09:53:45;49.15;;;34.53;;
25169;SDS011;13129;48.012;10.352;2023-05-23T09:56:11;50.70;;;36.47;;
25169;SDS011;13129;48.012;10.352;2023-05-23T09:58:37;52.15;;;36.83;;
25169;SDS011;13129;48.012;10.352;2023-05-23T10:01:05;48.33;;;36.38;;
25169;SDS011;13129;48.012;10.352;2023-05-23T10:03:52;47.35;;;35.15;;
25169;SDS011;13129;48.012;10.352;2023-05-23T10:08:54;52.30;;;37.05;;
25169;SDS011;13129;48.012;10.352;2023-05-23T10:14:09;50.92;;;35.42;;
25169;SDS011;13129;48.012;10.352;2023-05-23T10:16:57;48.92;;;35.40;;
25169;SDS011;13129;48.012;10.352;2023-05-23T10:19:44;41.45;;;30.50;;
25169;SDS011;13129;48.012;10.352;2023-05-23T10:22:21;44.88;;;33.30;;
25169;SDS011;13129;48.012;10.352;2023-05-23T10:24:48;47.95;;;34.00;;
25169;SDS011;13129;48.012;10.352;2023-05-23T10:27:14;45.83;;;34.47;;
25169;SDS011;13129;48.012;10.352;2023-05-23T10:29:40;50.15;;;35.60;;
25169;SDS011;13129;48.012;10.352;2023-05-23T10:32:06;58.75;;;37.00;;
25169;SDS011;13129;48.012;10.352;2023-05-23T10:34:40;57.38;;;37.30;;
25169;SDS011;13129;48.012;10.352;2023-05-23T10:37:23;60.80;;;36.78;;
25169;SDS011;13129;48.012;10.352;2023-05-23T10:40:04;56.05;;;37.28;;
25169;SDS011;13129;48.012;10.352;2023-05-23T10:42:39;52.58;;;37.28;;
25169;SDS011;13129;48.012;10.352;2023-05-23T10:45:15;56.35;;;39.15;;
25169;SDS011;13129;48.012;10.352;2023-05-23T10:47:42;57.90;;;38.70;;
25169;SDS011;13129;48.012;10.352;2023-05-23T10:50:11;65.70;;;40.38;;
25169;SDS011;13129;48.012;10.352;2023-05-23T10:52:39;62.65;;;39.90;;
25169;SDS011;13129;48.012;10.352;2023-05-23T10:55:13;64.38;;;41.70;;
25169;SDS011;13129;48.012;10.352;2023-05-23T10:57:41;69.60;;;43.67;;
25169;SDS011;13129;48.012;10.352;2023-05-23T11:00:14;72.53;;;45.72;;
25169;SDS011;13129;48.012;10.352;2023-05-23T11:02:53;64.25;;;41.47;;
25169;SDS011;13129;48.012;10.352;2023-05-23T11:05:22;62.63;;;40.97;;
25169;SDS011;13129;48.012;10.352;2023-05-23T11:11:20;62.38;;;41.30;;
25169;SDS011;13129;48.012;10.352;2023-05-23T11:13:24;61.75;;;40.53;;
25169;SDS011;13129;48.012;10.352;2023-05-23T11:15:50;61.97;;;41.13;;
25169;SDS011;13129;48.012;10.352;2023-05-23T11:18:22;65.35;;;42.42;;
25169;SDS011;13129;48.012;10.352;2023-05-23T11:20:51;58.58;;;41.67;;
25169;SDS011;13129;48.012;10.352;2023-05-23T11:23:18;61.03;;;39.83;;
25169;SDS011;13129;48.012;10.352;2023-05-23T11:25:49;60.97;;;39.83;;
25169;SDS011;13129;48.012;10.352;2023-05-23T11:28:17;54.70;;;39.83;;
25169;SDS011;13129;48.012;10.352;2023-05-23T11:30:46;57.22;;;38.20;;
25169;SDS011;13129;48.012;10.352;2023-05-23T11:33:13;53.67;;;37.75;;
25169;SDS011;13129;48.012;10.352;2023-05-23T11:35:41;56.60;;;37.70;;
25169;SDS011;13129;48.012;10.352;2023-05-23T11:38:08;50.70;;;36.03;;
25169;SDS011;13129;48.012;10.352;2023-05-23T11:43:04;50.88;;;36.38;;
25169;SDS011;13129;48.012;10.352;2023-05-23T11:45:32;48.13;;;36.20;;
25169;SDS011;13129;48.012;10.352;2023-05-23T11:48:03;50.53;;;36.85;;
25169;SDS011;13129;48.012;10.352;2023-05-23T11:50:30;46.63;;;36.67;;
25169;SDS011;13129;48.012;10.352;2023-05-23T11:52:56;50.85;;;37.47;;
25169;SDS011;13129;48.012;10.352;2023-05-23T11:55:22;49.38;;;35.83;;
25169;SDS011;13129;48.012;10.352;2023-05-23T11:57:48;49.78;;;36.17;;
25169;SDS011;13129;48.012;10.352;2023-05-23T12:00:14;48.10;;;34.83;;
25169;SDS011;13129;48.012;10.352;2023-05-23T12:02:41;46.83;;;34.63;;
25169;SDS011;13129;48.012;10.352;2023-05-23T12:05:10;47.60;;;35.22;;
25169;SDS011;13129;48.012;10.352;2023-05-23T12:10:07;44.17;;;33.45;;
25169;SDS011;13129;48.012;10.352;2023-05-23T12:12:34;46.55;;;35.78;;
25169;SDS011;13129;48.012;10.352;2023-05-23T12:15:01;41.72;;;33.88;;
25169;SDS011;13129;48.012;10.352;2023-05-23T12:17:27;40.55;;;33.78;;
25169;SDS011;13129;48.012;10.352;2023-05-23T12:19:52;42.35;;;33.85;;
25169;SDS011;13129;48.012;10.352;2023-05-23T12:22:24;41.13;;;33.20;;
25169;SDS011;13129;48.012;10.352;2023-05-23T12:24:54;44.63;;;35.28;;
25169;SDS011;13129;48.012;10.352;2023-05-23T12:27:32;42.92;;;34.45;;
25169;SDS011;13129;48.012;10.352;2023-05-23T12:30:20;42.42;;;33.80;;
25169;SDS011;13129;48.012;10.352;2023-05-23T12:32:45;37.95;;;33.00;;
25169;SDS011;13129;48.012;10.352;2023-05-23T12:35:12;41.67;;;33.05;;
25169;SDS011;13129;48.012;10.352;2023-05-23T12:37:45;43.38;;;35.97;;
25169;SDS011;13129;48.012;10.352;2023-05-23T12:40:15;43.22;;;35.03;;
25169;SDS011;13129;48.012;10.352;2023-05-23T12:42:51;39.78;;;34.55;;
25169;SDS011;13129;48.012;10.352;2023-05-23T12:45:19;42.67;;;34.20;;
25169;SDS011;13129;48.012;10.352;2023-05-23T12:47:46;39.83;;;33.13;;
25169;SDS011;13129;48.012;10.352;2023-05-23T12:50:11;36.75;;;31.85;;
25169;SDS011;13129;48.012;10.352;2023-05-23T12:52:37;39.92;;;30.42;;
25169;SDS011;13129;48.012;10.352;2023-05-23T12:55:04;38.03;;;31.75;;
25169;SDS011;13129;48.012;10.352;2023-05-23T12:57:30;39.35;;;31.70;;
25169;SDS011;13129;48.012;10.352;2023-05-23T12:59:58;39.80;;;32.25;;
25169;SDS011;13129;48.012;10.352;2023-05-23T13:02:23;43.72;;;35.15;;
25169;SDS011;13129;48.012;10.352;2023-05-23T13:04:49;39.47;;;32.65;;
25169;SDS011;13129;48.012;10.352;2023-05-23T13:07:15;37.95;;;31.40;;
25169;SDS011;13129;48.012;10.352;2023-05-23T13:09:50;36.28;;;29.40;;
25169;SDS011;13129;48.012;10.352;2023-05-23T13:12:16;34.63;;;29.90;;
25169;SDS011;13129;48.012;10.352;2023-05-23T13:14:41;33.95;;;29.33;;
25169;SDS011;13129;48.012;10.352;2023-05-23T13:17:07;30.42;;;27.13;;
25169;SDS011;13129;48.012;10.352;2023-05-23T13:19:33;35.38;;;29.02;;
25169;SDS011;13129;48.012;10.352;2023-05-23T13:21:58;30.70;;;26.83;;
25169;SDS011;13129;48.012;10.352;2023-05-23T13:24:25;34.22;;;28.63;;
25169;SDS011;13129;48.012;10.352;2023-05-23T13:26:51;37.35;;;28.95;;
25169;SDS011;13129;48.012;10.352;2023-05-23T13:29:17;28.98;;;25.67;;
25169;SDS011;13129;48.012;10.352;2023-05-23T13:31:42;28.65;;;24.05;;
25169;SDS011;13129;48.012;10.352;2023-05-23T13:34:08;29.33;;;25.30;;
25169;SDS011;13129;48.012;10.352;2023-05-23T13:36:34;30.08;;;26.30;;
25169;SDS011;13129;48.012;10.352;2023-05-23T13:39:00;29.98;;;25.17;;
25169;SDS011;13129;48.012;10.352;2023-05-23T13:41:25;27.23;;;24.23;;
25169;SDS011;13129;48.012;10.352;2023-05-23T13:43:51;28.65;;;24.55;;
25169;SDS011;13129;48.012;10.352;2023-05-23T13:46:17;27.42;;;24.45;;
25169;SDS011;13129;48.012;10.352;2023-05-23T13:48:43;26.50;;;23.70;;
25169;SDS011;13129;48.012;10.352;2023-05-23T13:51:08;27.58;;;24.48;;
25169;SDS011;13129;48.012;10.352;2023-05-23T13:53:34;29.50;;;26.58;;
25169;SDS011;13129;48.012;10.352;2023-05-23T13:56:00;28.92;;;25.27;;
25169;SDS011;13129;48.012;10.352;2023-05-23T13:58:27;27.80;;;24.58;;
25169;SDS011;13129;48.012;10.352;2023-05-23T14:00:53;29.85;;;26.05;;
25169;SDS011;13129;48.012;10.352;2023-05-23T14:03:19;27.02;;;24.20;;
25169;SDS011;13129;48.012;10.352;2023-05-23T14:05:44;27.88;;;23.80;;
25169;SDS011;13129;48.012;10.352;2023-05-23T14:08:10;27.45;;;23.60;;
25169;SDS011;13129;48.012;10.352;2023-05-23T14:10:37;25.30;;;22.60;;
25169;SDS011;13129;48.012;10.352;2023-05-23T14:13:05;25.83;;;23.08;;
25169;SDS011;13129;48.012;10.352;2023-05-23T14:15:31;26.30;;;23.58;;
25169;SDS011;13129;48.012;10.352;2023-05-23T14:17:57;27.05;;;24.23;;
25169;SDS011;13129;48.012;10.352;2023-05-23T14:20:23;26.38;;;23.55;;
25169;SDS011;13129;48.012;10.352;2023-05-23T14:22:49;24.77;;;22.08;;
25169;SDS011;13129;48.012;10.352;2023-05-23T14:25:15;22.63;;;20.33;;
25169;SDS011;13129;48.012;10.352;2023-05-23T14:27:42;22.48;;;19.50;;
25169;SDS011;13129;48.012;10.352;2023-05-23T14:30:08;19.92;;;17.52;;
25169;SDS011;13129;48.012;10.352;2023-05-23T14:32:34;18.63;;;16.70;;
25169;SDS011;13129;48.012;10.352;2023-05-23T14:35:06;18.70;;;16.42;;
25169;SDS011;13129;48.012;10.352;2023-05-23T14:37:34;18.25;;;16.45;;
25169;SDS011;13129;48.012;10.352;2023-05-23T14:39:59;20.52;;;18.05;;
25169;SDS011;13129;48.012;10.352;2023-05-23T14:42:25;23.02;;;19.45;;
25169;SDS011;13129;48.012;10.352;2023-05-23T14:44:52;21.08;;;18.88;;
25169;SDS011;13129;48.012;10.352;2023-05-23T14:47:18;21.40;;;19.10;;
25169;SDS011;13129;48.012;10.352;2023-05-23T14:49:44;23.75;;;21.23;;
25169;SDS011;13129;48.012;10.352;2023-05-23T14:52:09;22.33;;;20.02;;
25169;SDS011;13129;48.012;10.352;2023-05-23T14:54:36;21.80;;;19.45;;
25169;SDS011;13129;48.012;10.352;2023-05-23T14:57:05;22.75;;;20.35;;
25169;SDS011;13129;48.012;10.352;2023-05-23T14:59:31;22.42;;;20.13;;
25169;SDS011;13129;48.012;10.352;2023-05-23T15:01:56;20.25;;;18.02;;
25169;SDS011;13129;48.012;10.352;2023-05-23T15:04:22;19.08;;;16.65;;
25169;SDS011;13129;48.012;10.352;2023-05-23T15:06:48;19.35;;;17.42;;
25169;SDS011;13129;48.012;10.352;2023-05-23T15:09:15;17.67;;;15.73;;
25169;SDS011;13129;48.012;10.352;2023-05-23T15:11:42;18.85;;;16.85;;
25169;SDS011;13129;48.012;10.352;2023-05-23T15:14:09;20.15;;;17.92;;
25169;SDS011;13129;48.012;10.352;2023-05-23T15:16:35;17.95;;;16.05;;
25169;SDS011;13129;48.012;10.352;2023-05-23T15:19:01;19.23;;;17.27;;
25169;SDS011;13129;48.012;10.352;2023-05-23T15:21:27;18.95;;;16.98;;
25169;SDS011;13129;48.012;10.352;2023-05-23T15:23:53;17.35;;;15.57;;
25169;SDS011;13129;48.012;10.352;2023-05-23T15:26:19;17.13;;;15.40;;
25169;SDS011;13129;48.012;10.352;2023-05-23T15:28:44;18.52;;;16.55;;
25169;SDS011;13129;48.012;10.352;2023-05-23T15:31:10;17.23;;;15.48;;
25169;SDS011;13129;48.012;10.352;2023-05-23T15:33:36;16.90;;;14.98;;
25169;SDS011;13129;48.012;10.352;2023-05-23T15:36:01;17.13;;;15.38;;
25169;SDS011;13129;48.012;10.352;2023-05-23T15:38:27;16.98;;;15.18;;
25169;SDS011;13129;48.012;10.352;2023-05-23T15:40:53;17.02;;;15.23;;
25169;SDS011;13129;48.012;10.352;2023-05-23T15:43:20;19.63;;;15.95;;
25169;SDS011;13129;48.012;10.352;2023-05-23T15:45:48;16.67;;;14.85;;
25169;SDS011;13129;48.012;10.352;2023-05-23T15:48:13;17.38;;;15.32;;
25169;SDS011;13129;48.012;10.352;2023-05-23T15:50:39;17.23;;;15.48;;
25169;SDS011;13129;48.012;10.352;2023-05-23T15:53:05;17.13;;;14.75;;
25169;SDS011;13129;48.012;10.352;2023-05-23T15:55:30;16.45;;;14.85;;
25169;SDS011;13129;48.012;10.352;2023-05-23T15:57:56;17.70;;;15.93;;
25169;SDS011;13129;48.012;10.352;2023-05-23T16:00:21;19.52;;;16.70;;
25169;SDS011;13129;48.012;10.352;2023-05-23T16:02:47;19.10;;;17.30;;
25169;SDS011;13129;48.012;10.352;2023-05-23T16:05:13;18.55;;;16.65;;
25169;SDS011;13129;48.012;10.352;2023-05-23T16:07:38;17.73;;;15.80;;
25169;SDS011;13129;48.012;10.352;2023-05-23T16:10:04;17.17;;;15.35;;
25169;SDS011;13129;48.012;10.352;2023-05-23T16:12:30;17.02;;;15.13;;
25169;SDS011;13129;48.012;10.352;2023-05-23T16:14:56;17.30;;;15.63;;
25169;SDS011;13129;48.012;10.352;2023-05-23T16:17:21;18.73;;;16.65;;
25169;SDS011;13129;48.012;10.352;2023-05-23T16:19:47;18.65;;;16.33;;
25169;SDS011;13129;48.012;10.352;2023-05-23T16:22:13;17.92;;;16.02;;
25169;SDS011;13129;48.012;10.352;2023-05-23T16:24:38;17.55;;;14.80;;
25169;SDS011;13129;48.012;10.352;2023-05-23T16:27:04;18.45;;;15.18;;
25169;SDS011;13129;48.012;10.352;2023-05-23T16:29:30;16.83;;;14.95;;
25169;SDS011;13129;48.012;10.352;2023-05-23T16:31:55;17.10;;;13.57;;
25169;SDS011;13129;48.012;10.352;2023-05-23T16:34:21;15.00;;;13.60;;
25169;SDS011;13129;48.012;10.352;2023-05-23T16:36:47;15.90;;;14.00;;
25169;SDS011;13129;48.012;10.352;2023-05-23T16:39:12;13.63;;;12.18;;
25169;SDS011;13129;48.012;10.352;2023-05-23T16:41:38;13.48;;;12.07;;
25169;SDS011;13129;48.012;10.352;2023-05-23T16:44:03;12.52;;;11.15;;
25169;SDS011;13129;48.012;10.352;2023-05-23T16:46:29;12.77;;;11.48;;
25169;SDS011;13129;48.012;10.352;2023-05-23T16:48:55;14.60;;;13.05;;
25169;SDS011;13129;48.012;10.352;2023-05-23T16:51:20;12.85;;;11.38;;
25169;SDS011;13129;48.012;10.352;2023-05-23T16:53:46;12.82;;;11.52;;
25169;SDS011;13129;48.012;10.352;2023-05-23T16:56:11;12.65;;;11.23;;
25169;SDS011;13129;48.012;10.352;2023-05-23T16:58:37;12.75;;;11.43;;
25169;SDS011;13129;48.012;10.352;2023-05-23T17:01:03;12.88;;;11.20;;
25169;SDS011;13129;48.012;10.352;2023-05-23T17:03:30;14.55;;;12.30;;
25169;SDS011;13129;48.012;10.352;2023-05-23T17:05:55;12.15;;;10.70;;
25169;SDS011;13129;48.012;10.352;2023-05-23T17:08:21;13.27;;;11.88;;
25169;SDS011;13129;48.012;10.352;2023-05-23T17:10:46;11.57;;;10.38;;
25169;SDS011;13129;48.012;10.352;2023-05-23T17:13:12;12.82;;;11.63;;
25169;SDS011;13129;48.012;10.352;2023-05-23T17:15:38;11.40;;;10.18;;
25169;SDS011;13129;48.012;10.352;2023-05-23T17:18:03;11.55;;;10.40;;
25169;SDS011;13129;48.012;10.352;2023-05-23T17:20:29;13.88;;;11.43;;
25169;SDS011;13129;48.012;10.352;2023-05-23T17:22:55;12.20;;;10.82;;
25169;SDS011;13129;48.012;10.352;2023-05-23T17:25:20;11.43;;;10.18;;
25169;SDS011;13129;48.012;10.352;2023-05-23T17:27:46;13.15;;;11.20;;
25169;SDS011;13129;48.012;10.352;2023-05-23T17:30:12;12.30;;;11.07;;
25169;SDS011;13129;48.012;10.352;2023-05-23T17:32:43;10.07;;;8.88;;
25169;SDS011;13129;48.012;10.352;2023-05-23T17:35:09;12.10;;;9.77;;
25169;SDS011;13129;48.012;10.352;2023-05-23T17:37:36;9.27;;;8.27;;
25169;SDS011;13129;48.012;10.352;2023-05-23T17:40:02;9.32;;;8.40;;
25169;SDS011;13129;48.012;10.352;2023-05-23T17:42:30;9.70;;;8.25;;
25169;SDS011;13129;48.012;10.352;2023-05-23T17:44:56;8.85;;;7.95;;
25169;SDS011;13129;48.012;10.352;2023-05-23T17:47:21;8.73;;;7.93;;
25169;SDS011;13129;48.012;10.352;2023-05-23T17:49:47;10.02;;;8.45;;
25169;SDS011;13129;48.012;10.352;2023-05-23T17:52:12;9.88;;;8.88;;